createdAt,value
2019-01-31T00:00:26.657Z,80.6
2019-01-31T00:01:07.217Z,80.88
2019-01-31T00:01:47.792Z,80.98
2019-01-31T00:02:28.347Z,80.69
2019-01-31T00:03:08.918Z,80.98
2019-01-31T00:03:49.489Z,80.79
2019-01-31T00:04:30.101Z,81.45
2019-01-31T00:05:10.662Z,81.26
2019-01-31T00:05:51.297Z,81.45
2019-01-31T00:06:31.822Z,81.17
2019-01-31T00:07:12.385Z,81.17
2019-01-31T00:07:52.951Z,80.88
2019-01-31T00:08:33.496Z,80.51
2019-01-31T00:09:14.136Z,80.69
2019-01-31T00:09:54.721Z,80.79
2019-01-31T00:10:35.248Z,80.79
2019-01-31T00:11:15.833Z,80.69
2019-01-31T00:11:56.387Z,81.07
2019-01-31T00:12:36.953Z,80.88
2019-01-31T00:13:17.534Z,80.69
2019-01-31T00:13:58.089Z,80.79
2019-01-31T00:14:38.664Z,80.98
2019-01-31T00:15:19.227Z,80.51
2019-01-31T00:15:59.777Z,80.6
2019-01-31T00:16:40.328Z,80.51
2019-01-31T00:17:20.885Z,80.51
2019-01-31T00:18:01.441Z,80.6
2019-01-31T00:18:42.003Z,80.51
2019-01-31T00:19:22.563Z,80.88
2019-01-31T00:20:03.122Z,80.51
2019-01-31T00:20:43.681Z,80.6
2019-01-31T00:21:24.232Z,80.6
2019-01-31T00:22:04.792Z,80.6
2019-01-31T00:22:45.343Z,80.69
2019-01-31T00:23:25.908Z,80.51
2019-01-31T00:24:06.453Z,80.51
2019-01-31T00:24:47.007Z,80.88
2019-01-31T00:25:27.614Z,80.98
2019-01-31T00:26:08.157Z,80.69
2019-01-31T00:26:48.721Z,80.98
2019-01-31T00:27:29.273Z,80.6
2019-01-31T00:28:09.828Z,81.26
2019-01-31T00:28:50.397Z,81.17
2019-01-31T00:29:30.950Z,81.45
2019-01-31T00:30:11.504Z,81.07
2019-01-31T00:30:52.048Z,80.88
2019-01-31T00:31:32.607Z,80.88
2019-01-31T00:32:13.170Z,81.07
2019-01-31T00:32:53.723Z,80.79
2019-01-31T00:33:34.285Z,81.07
2019-01-31T00:34:14.855Z,80.88
2019-01-31T00:34:55.427Z,80.69
2019-01-31T00:35:35.979Z,80.79
2019-01-31T00:36:16.543Z,80.79
2019-01-31T00:36:57.126Z,80.79
2019-01-31T00:37:37.674Z,80.69
2019-01-31T00:38:18.230Z,80.79
2019-01-31T00:38:58.783Z,80.79
2019-01-31T00:39:39.345Z,80.69
2019-01-31T00:40:19.924Z,80.88
2019-01-31T00:41:00.489Z,81.07
2019-01-31T00:41:41.049Z,80.98
2019-01-31T00:42:21.605Z,80.98
2019-01-31T00:43:02.162Z,80.88
2019-01-31T00:43:42.731Z,80.98
2019-01-31T00:44:23.314Z,80.98
2019-01-31T00:45:03.837Z,80.69
2019-01-31T00:45:44.394Z,80.88
2019-01-31T00:46:24.954Z,80.79
2019-01-31T00:47:05.511Z,80.79
2019-01-31T00:47:46.075Z,80.6
2019-01-31T00:48:26.645Z,80.79
2019-01-31T00:49:07.199Z,80.79
2019-01-31T00:49:47.757Z,80.51
2019-01-31T00:50:28.321Z,80.51
2019-01-31T00:51:08.894Z,80.69
2019-01-31T00:51:49.458Z,80.79
2019-01-31T00:52:30.013Z,80.69
2019-01-31T00:53:10.569Z,80.88
2019-01-31T00:53:51.194Z,80.79
2019-01-31T00:54:31.793Z,80.88
2019-01-31T00:55:12.359Z,80.98
2019-01-31T00:55:52.967Z,80.79
2019-01-31T00:56:33.526Z,80.79
2019-01-31T00:57:14.074Z,80.6
2019-01-31T00:57:54.654Z,81.17
2019-01-31T00:58:35.207Z,81.45
2019-01-31T00:59:15.776Z,80.98
2019-01-31T00:59:56.341Z,80.69
2019-01-31T01:00:36.919Z,80.79
2019-01-31T01:01:17.474Z,80.79
2019-01-31T01:01:58.036Z,80.6
2019-01-31T01:02:38.585Z,80.41
2019-01-31T01:03:19.187Z,80.69
2019-01-31T01:03:59.733Z,80.51
2019-01-31T01:04:40.335Z,80.79
2019-01-31T01:05:20.897Z,80.88
2019-01-31T01:06:01.449Z,80.79
2019-01-31T01:06:42.019Z,80.69
2019-01-31T01:07:22.582Z,80.51
2019-01-31T01:08:03.138Z,80.51
2019-01-31T01:08:43.705Z,80.69
2019-01-31T01:09:24.261Z,80.88
2019-01-31T01:10:04.819Z,80.6
2019-01-31T01:10:45.383Z,81.07
2019-01-31T01:11:25.943Z,81.45
2019-01-31T01:12:06.498Z,81.17
2019-01-31T01:12:47.057Z,81.07
2019-01-31T01:13:27.612Z,81.07
2019-01-31T01:14:08.181Z,81.36
2019-01-31T01:14:48.735Z,81.17
2019-01-31T01:15:29.294Z,81.17
2019-01-31T01:16:09.872Z,81.45
2019-01-31T01:16:50.429Z,81.36
2019-01-31T01:17:30.994Z,81.17
2019-01-31T01:18:11.544Z,81.55
2019-01-31T01:18:52.110Z,81.17
2019-01-31T01:19:32.706Z,81.36
2019-01-31T01:20:13.268Z,81.45
2019-01-31T01:20:53.823Z,81.26
2019-01-31T01:21:34.389Z,81.26
2019-01-31T01:22:14.942Z,81.26
2019-01-31T01:22:55.495Z,81.26
2019-01-31T01:23:36.054Z,81.26
2019-01-31T01:24:16.606Z,81.45
2019-01-31T01:24:57.186Z,81.36
2019-01-31T01:25:37.735Z,80.88
2019-01-31T01:26:18.298Z,80.69
2019-01-31T01:26:58.855Z,80.51
2019-01-31T01:27:39.427Z,80.51
2019-01-31T01:28:19.985Z,80.98
2019-01-31T01:29:00.553Z,81.07
2019-01-31T01:29:41.110Z,80.6
2019-01-31T01:30:21.656Z,80.79
2019-01-31T01:31:02.194Z,80.88
2019-01-31T01:31:42.746Z,81.45
2019-01-31T01:32:23.301Z,81.17
2019-01-31T01:33:03.869Z,81.26
2019-01-31T01:33:44.426Z,81.55
2019-01-31T01:34:24.972Z,81.26
2019-01-31T01:35:05.522Z,81.26
2019-01-31T01:35:46.080Z,81.17
2019-01-31T01:36:26.636Z,80.98
2019-01-31T01:37:07.193Z,80.98
2019-01-31T01:37:47.765Z,80.69
2019-01-31T01:38:28.348Z,80.88
2019-01-31T01:39:18.583Z,80.69
2019-01-31T01:39:49.475Z,80.69
2019-01-31T01:40:30.039Z,80.69
2019-01-31T01:41:10.592Z,80.69
2019-01-31T01:41:51.140Z,80.69
2019-01-31T01:42:31.698Z,80.69
2019-01-31T01:43:12.268Z,80.79
2019-01-31T01:43:52.819Z,80.51
2019-01-31T01:44:33.374Z,80.69
2019-01-31T01:45:13.942Z,80.79
2019-01-31T01:45:54.526Z,80.88
2019-01-31T01:46:35.093Z,80.51
2019-01-31T01:47:15.654Z,80.79
2019-01-31T01:47:56.216Z,80.51
2019-01-31T01:48:36.783Z,80.69
2019-01-31T01:49:17.661Z,80.88
2019-01-31T01:49:58.223Z,80.79
2019-01-31T01:50:38.784Z,80.6
2019-01-31T01:51:19.340Z,80.69
2019-01-31T01:51:59.890Z,80.69
2019-01-31T01:52:40.443Z,80.79
2019-01-31T01:53:20.997Z,80.6
2019-01-31T01:54:01.542Z,80.69
2019-01-31T01:54:42.090Z,80.69
2019-01-31T01:55:22.641Z,80.6
2019-01-31T01:56:03.202Z,80.79
2019-01-31T01:56:43.762Z,80.6
2019-01-31T01:57:24.326Z,80.69
2019-01-31T01:58:04.879Z,80.51
2019-01-31T01:58:45.457Z,80.69
2019-01-31T01:59:26.010Z,80.69
2019-01-31T02:00:06.567Z,80.51
2019-01-31T02:00:47.134Z,80.88
2019-01-31T02:01:27.719Z,80.51
2019-01-31T02:02:08.270Z,80.51
2019-01-31T02:02:48.838Z,80.79
2019-01-31T02:03:29.388Z,80.69
2019-01-31T02:04:09.930Z,80.69
2019-01-31T02:04:50.485Z,80.98
2019-01-31T02:05:31.050Z,80.69
2019-01-31T02:06:11.614Z,80.51
2019-01-31T02:06:52.170Z,81.07
2019-01-31T02:07:32.731Z,80.79
2019-01-31T02:08:13.294Z,80.51
2019-01-31T02:08:53.882Z,80.88
2019-01-31T02:09:34.435Z,80.88
2019-01-31T02:10:14.996Z,80.69
2019-01-31T02:10:55.647Z,80.79
2019-01-31T02:11:36.101Z,80.79
2019-01-31T02:12:16.651Z,80.79
2019-01-31T02:12:57.226Z,80.69
2019-01-31T02:13:37.781Z,80.69
2019-01-31T02:14:18.349Z,80.41
2019-01-31T02:14:58.916Z,80.79
2019-01-31T02:15:39.471Z,80.69
2019-01-31T02:16:20.022Z,80.88
2019-01-31T02:17:00.568Z,80.98
2019-01-31T02:17:41.159Z,80.69
2019-01-31T02:18:21.707Z,80.69
2019-01-31T02:19:02.226Z,80.79
2019-01-31T02:19:42.778Z,81.45
2019-01-31T02:20:23.347Z,81.26
2019-01-31T02:21:03.902Z,81.26
2019-01-31T02:21:44.487Z,81.36
2019-01-31T02:22:25.037Z,81.07
2019-01-31T02:23:05.606Z,81.26
2019-01-31T02:23:46.176Z,81.45
2019-01-31T02:24:26.724Z,81.36
2019-01-31T02:25:07.276Z,81.45
2019-01-31T02:25:47.841Z,80.79
2019-01-31T02:26:28.387Z,81.45
2019-01-31T02:27:08.953Z,81.36
2019-01-31T02:27:49.512Z,80.6
2019-01-31T02:28:30.069Z,80.88
2019-01-31T02:29:10.618Z,80.6
2019-01-31T02:29:51.177Z,81.45
2019-01-31T02:30:31.734Z,81.17
2019-01-31T02:31:12.275Z,81.17
2019-01-31T02:31:52.887Z,81.26
2019-01-31T02:32:33.421Z,81.17
2019-01-31T02:33:13.989Z,81.45
2019-01-31T02:33:54.550Z,81.26
2019-01-31T02:34:35.116Z,81.26
2019-01-31T02:35:15.648Z,81.36
2019-01-31T02:35:56.244Z,80.98
2019-01-31T02:36:36.797Z,81.26
2019-01-31T02:37:17.345Z,81.45
2019-01-31T02:37:57.909Z,81.36
2019-01-31T02:38:38.460Z,80.79
2019-01-31T02:39:19.020Z,80.51
2019-01-31T02:39:59.578Z,80.6
2019-01-31T02:40:40.132Z,80.79
2019-01-31T02:41:20.701Z,80.51
2019-01-31T02:42:01.264Z,80.51
2019-01-31T02:42:41.829Z,80.51
2019-01-31T02:43:22.399Z,80.6
2019-01-31T02:44:02.979Z,80.6
2019-01-31T02:44:43.545Z,80.69
2019-01-31T02:45:24.098Z,80.88
2019-01-31T02:46:04.665Z,80.79
2019-01-31T02:46:45.217Z,80.6
2019-01-31T02:47:25.769Z,80.79
2019-01-31T02:48:06.320Z,80.79
2019-01-31T02:48:46.874Z,80.32
2019-01-31T02:49:27.428Z,79.75
2019-01-31T02:50:07.977Z,79.85
2019-01-31T02:50:48.542Z,80.04
2019-01-31T02:51:29.105Z,80.51
2019-01-31T02:52:09.661Z,80.13
2019-01-31T02:52:50.221Z,80.22
2019-01-31T02:53:30.770Z,80.22
2019-01-31T02:54:11.331Z,80.13
2019-01-31T02:54:51.917Z,79.85
2019-01-31T02:55:32.461Z,80.51
2019-01-31T02:56:13.030Z,80.41
2019-01-31T02:56:53.586Z,80.13
2019-01-31T02:57:34.155Z,79.94
2019-01-31T02:58:14.715Z,79.94
2019-01-31T02:58:55.297Z,80.51
2019-01-31T02:59:35.844Z,80.22
2019-01-31T03:00:16.404Z,79.94
2019-01-31T03:00:56.985Z,80.32
2019-01-31T03:01:37.547Z,80.13
2019-01-31T03:02:18.112Z,80.04
2019-01-31T03:02:58.670Z,80.04
2019-01-31T03:03:39.227Z,80.04
2019-01-31T03:04:19.784Z,80.04
2019-01-31T03:05:00.424Z,80.04
2019-01-31T03:05:40.898Z,80.13
2019-01-31T03:06:21.465Z,80.51
2019-01-31T03:07:02.017Z,80.41
2019-01-31T03:07:42.576Z,80.51
2019-01-31T03:08:23.128Z,80.04
2019-01-31T03:09:03.701Z,80.13
2019-01-31T03:09:54.490Z,80.04
2019-01-31T03:10:24.845Z,80.04
2019-01-31T03:11:05.400Z,80.32
2019-01-31T03:11:45.950Z,80.04
2019-01-31T03:12:26.513Z,80.04
2019-01-31T03:13:07.073Z,79.85
2019-01-31T03:13:47.663Z,80.51
2019-01-31T03:14:28.215Z,79.94
2019-01-31T03:15:08.773Z,80.51
2019-01-31T03:15:49.334Z,80.51
2019-01-31T03:16:29.897Z,80.32
2019-01-31T03:17:10.446Z,80.13
2019-01-31T03:17:51.008Z,79.85
2019-01-31T03:18:31.561Z,80.13
2019-01-31T03:19:12.139Z,80.22
2019-01-31T03:19:52.715Z,80.13
2019-01-31T03:20:33.319Z,80.04
2019-01-31T03:21:13.883Z,80.13
2019-01-31T03:21:54.433Z,79.94
2019-01-31T03:22:35.018Z,80.04
2019-01-31T03:23:15.577Z,80.13
2019-01-31T03:23:56.122Z,80.41
2019-01-31T03:24:36.710Z,80.51
2019-01-31T03:25:17.291Z,80.13
2019-01-31T03:25:57.826Z,80.79
2019-01-31T03:26:38.377Z,80.51
2019-01-31T03:27:18.929Z,80.79
2019-01-31T03:27:59.495Z,80.41
2019-01-31T03:28:40.041Z,80.79
2019-01-31T03:29:20.615Z,80.79
2019-01-31T03:30:01.161Z,80.69
2019-01-31T03:30:41.710Z,80.51
2019-01-31T03:31:22.265Z,80.69
2019-01-31T03:32:02.980Z,80.22
2019-01-31T03:32:43.396Z,79.94
2019-01-31T03:33:23.934Z,80.22
2019-01-31T03:34:04.497Z,80.04
2019-01-31T03:34:45.067Z,79.94
2019-01-31T03:35:25.622Z,80.13
2019-01-31T03:36:06.172Z,80.32
2019-01-31T03:36:46.727Z,80.32
2019-01-31T03:37:27.328Z,79.85
2019-01-31T03:38:07.892Z,80.13
2019-01-31T03:38:48.444Z,80.13
2019-01-31T03:39:29.007Z,80.04
2019-01-31T03:40:09.574Z,79.94
2019-01-31T03:40:50.130Z,80.41
2019-01-31T03:41:30.697Z,80.22
2019-01-31T03:42:11.249Z,80.22
2019-01-31T03:42:51.798Z,79.75
2019-01-31T03:43:32.352Z,80.32
2019-01-31T03:44:12.937Z,80.79
2019-01-31T03:44:53.492Z,80.51
2019-01-31T03:45:34.033Z,80.51
2019-01-31T03:46:14.597Z,80.79
2019-01-31T03:46:55.143Z,80.79
2019-01-31T03:47:35.705Z,80.51
2019-01-31T03:48:16.266Z,80.79
2019-01-31T03:48:56.825Z,80.79
2019-01-31T03:49:37.703Z,80.51
2019-01-31T03:50:18.283Z,80.69
2019-01-31T03:50:58.849Z,80.69
2019-01-31T03:51:39.412Z,80.98
2019-01-31T03:52:19.964Z,80.51
2019-01-31T03:53:00.541Z,79.75
2019-01-31T03:53:41.100Z,80.41
2019-01-31T03:54:21.657Z,80.32
2019-01-31T03:55:02.203Z,80.41
2019-01-31T03:55:42.767Z,79.94
2019-01-31T03:56:23.338Z,79.94
2019-01-31T03:57:03.887Z,80.32
2019-01-31T03:57:44.447Z,79.94
2019-01-31T03:58:24.998Z,79.94
2019-01-31T03:59:05.553Z,80.51
2019-01-31T03:59:46.109Z,80.22
2019-01-31T04:00:26.682Z,80.22
2019-01-31T04:01:07.263Z,80.22
2019-01-31T04:01:47.819Z,80.13
2019-01-31T04:02:28.384Z,80.13
2019-01-31T04:03:08.947Z,80.51
2019-01-31T04:03:49.495Z,80.13
2019-01-31T04:04:30.051Z,80.32
2019-01-31T04:05:10.608Z,80.41
2019-01-31T04:05:51.154Z,80.69
2019-01-31T04:06:31.710Z,80.32
2019-01-31T04:07:12.286Z,80.51
2019-01-31T04:07:52.907Z,80.69
2019-01-31T04:08:33.392Z,80.79
2019-01-31T04:09:13.948Z,80.41
2019-01-31T04:09:54.522Z,80.22
2019-01-31T04:10:35.073Z,80.22
2019-01-31T04:11:15.629Z,80.32
2019-01-31T04:11:56.203Z,80.32
2019-01-31T04:12:36.770Z,80.41
2019-01-31T04:13:17.323Z,80.22
2019-01-31T04:13:57.897Z,80.04
2019-01-31T04:14:38.454Z,80.22
2019-01-31T04:15:19.009Z,80.32
2019-01-31T04:15:59.572Z,80.22
2019-01-31T04:16:40.133Z,80.13
2019-01-31T04:17:20.690Z,79.85
2019-01-31T04:18:01.243Z,80.04
2019-01-31T04:18:41.806Z,80.51
2019-01-31T04:19:22.360Z,80.22
2019-01-31T04:20:03.027Z,80.32
2019-01-31T04:20:43.496Z,80.41
2019-01-31T04:21:24.080Z,80.04
2019-01-31T04:22:04.643Z,79.85
2019-01-31T04:22:45.195Z,79.85
2019-01-31T04:23:25.751Z,79.85
2019-01-31T04:24:06.302Z,79.75
2019-01-31T04:24:46.854Z,79.85
2019-01-31T04:25:27.428Z,80.13
2019-01-31T04:26:07.984Z,79.85
2019-01-31T04:26:48.538Z,80.13
2019-01-31T04:27:29.100Z,80.04
2019-01-31T04:28:09.653Z,80.04
2019-01-31T04:28:50.217Z,80.04
2019-01-31T04:29:30.767Z,80.13
2019-01-31T04:30:11.322Z,79.94
2019-01-31T04:30:51.880Z,79.75
2019-01-31T04:31:32.463Z,79.85
2019-01-31T04:32:13.082Z,79.66
2019-01-31T04:32:53.644Z,79.75
2019-01-31T04:33:34.203Z,79.66
2019-01-31T04:34:14.757Z,79.66
2019-01-31T04:34:55.321Z,80.41
2019-01-31T04:35:35.874Z,80.13
2019-01-31T04:36:16.453Z,80.13
2019-01-31T04:36:57.001Z,80.04
2019-01-31T04:37:37.558Z,80.32
2019-01-31T04:38:19.832Z,80.04
2019-01-31T04:38:58.675Z,80.04
2019-01-31T04:39:39.233Z,80.04
2019-01-31T04:40:30.333Z,80.22
2019-01-31T04:41:00.351Z,80.13
2019-01-31T04:41:40.912Z,79.75
2019-01-31T04:42:21.466Z,80.13
2019-01-31T04:43:02.138Z,79.75
2019-01-31T04:43:42.599Z,79.75
2019-01-31T04:44:23.155Z,79.66
2019-01-31T04:45:03.718Z,79.66
2019-01-31T04:45:44.284Z,80.04
2019-01-31T04:46:24.837Z,79.94
2019-01-31T04:47:05.393Z,79.94
2019-01-31T04:47:45.974Z,80.41
2019-01-31T04:48:26.525Z,80.13
2019-01-31T04:49:07.081Z,80.13
2019-01-31T04:49:48.546Z,80.04
2019-01-31T04:50:29.109Z,80.04
2019-01-31T04:51:09.678Z,80.04
2019-01-31T04:51:50.227Z,80.04
2019-01-31T04:52:30.798Z,80.22
2019-01-31T04:53:11.378Z,80.04
2019-01-31T04:53:51.950Z,80.04
2019-01-31T04:54:32.501Z,80.32
2019-01-31T04:55:13.058Z,79.94
2019-01-31T04:55:53.613Z,79.85
2019-01-31T04:56:34.208Z,79.94
2019-01-31T04:57:14.761Z,80.51
2019-01-31T04:57:55.318Z,80.51
2019-01-31T04:58:35.876Z,80.32
2019-01-31T04:59:16.434Z,80.04
2019-01-31T04:59:57.065Z,79.85
2019-01-31T05:00:37.558Z,80.51
2019-01-31T05:01:18.117Z,79.94
2019-01-31T05:01:58.713Z,79.75
2019-01-31T05:02:39.285Z,80.41
2019-01-31T05:03:19.825Z,80.6
2019-01-31T05:04:00.380Z,80.69
2019-01-31T05:04:40.921Z,80.69
2019-01-31T05:05:21.478Z,80.69
2019-01-31T05:06:02.029Z,80.51
2019-01-31T05:06:42.579Z,80.79
2019-01-31T05:07:23.123Z,80.22
2019-01-31T05:08:03.708Z,80.32
2019-01-31T05:08:44.266Z,80.41
2019-01-31T05:09:24.825Z,80.22
2019-01-31T05:10:05.383Z,80.22
2019-01-31T05:10:45.950Z,80.32
2019-01-31T05:11:26.587Z,79.75
2019-01-31T05:12:07.139Z,80.41
2019-01-31T05:12:47.697Z,80.88
2019-01-31T05:13:28.254Z,80.41
2019-01-31T05:14:08.829Z,80.22
2019-01-31T05:14:49.380Z,79.98
2019-01-31T05:15:29.959Z,80.13
2019-01-31T05:16:10.525Z,80.51
2019-01-31T05:16:51.080Z,80.04
2019-01-31T05:17:31.629Z,80.51
2019-01-31T05:18:12.182Z,80.41
2019-01-31T05:18:52.743Z,80.04
2019-01-31T05:19:33.292Z,80.32
2019-01-31T05:20:13.835Z,80.13
2019-01-31T05:20:54.392Z,80.04
2019-01-31T05:21:34.961Z,79.85
2019-01-31T05:22:15.506Z,80.04
2019-01-31T05:22:56.069Z,80.41
2019-01-31T05:23:36.637Z,80.51
2019-01-31T05:24:17.191Z,80.22
2019-01-31T05:24:57.749Z,80.32
2019-01-31T05:25:38.292Z,80.22
2019-01-31T05:26:18.846Z,79.94
2019-01-31T05:26:59.405Z,80.51
2019-01-31T05:27:39.957Z,80.41
2019-01-31T05:28:20.531Z,79.94
2019-01-31T05:29:01.085Z,80.41
2019-01-31T05:29:41.666Z,80.32
2019-01-31T05:30:22.229Z,80.69
2019-01-31T05:31:02.795Z,80.69
2019-01-31T05:31:43.350Z,80.6
2019-01-31T05:32:23.907Z,80.51
2019-01-31T05:33:04.480Z,80.79
2019-01-31T05:33:45.031Z,80.69
2019-01-31T05:34:25.586Z,81.07
2019-01-31T05:35:06.169Z,80.88
2019-01-31T05:35:46.722Z,81.07
2019-01-31T05:36:27.269Z,81.45
2019-01-31T05:37:07.834Z,81.07
2019-01-31T05:37:48.444Z,80.6
2019-01-31T05:38:29.002Z,80.51
2019-01-31T05:39:09.561Z,80.79
2019-01-31T05:39:50.121Z,80.79
2019-01-31T05:40:30.671Z,80.88
2019-01-31T05:41:11.229Z,80.88
2019-01-31T05:41:51.906Z,80.98
2019-01-31T05:42:32.604Z,80.88
2019-01-31T05:43:13.246Z,80.88
2019-01-31T05:43:54.011Z,80.79
2019-01-31T05:44:34.762Z,80.88
2019-01-31T05:45:15.334Z,80.79
2019-01-31T05:45:55.888Z,80.88
2019-01-31T05:46:36.452Z,80.79
2019-01-31T05:47:17.046Z,81.07
2019-01-31T05:47:57.669Z,80.69
2019-01-31T05:48:38.466Z,80.79
2019-01-31T05:49:19.280Z,80.79
2019-01-31T05:49:59.845Z,80.98
2019-01-31T05:50:40.392Z,80.88
2019-01-31T05:51:20.950Z,80.79
2019-01-31T05:52:01.504Z,80.98
2019-01-31T05:52:42.210Z,81.45
2019-01-31T05:53:22.774Z,81.26
2019-01-31T05:54:03.318Z,81.26
2019-01-31T05:54:43.881Z,81.17
2019-01-31T05:55:24.472Z,81.55
2019-01-31T05:56:05.079Z,81.45
2019-01-31T05:56:45.998Z,81.55
2019-01-31T05:57:26.561Z,81.74
2019-01-31T05:58:07.451Z,81.93
2019-01-31T05:58:48.028Z,82.02
2019-01-31T05:59:28.579Z,81.64
2019-01-31T06:00:09.168Z,81.45
2019-01-31T06:00:49.773Z,81.55
2019-01-31T06:01:30.344Z,81.55
2019-01-31T06:02:10.893Z,81.17
2019-01-31T06:02:51.495Z,81.17
2019-01-31T06:03:32.060Z,81.55
2019-01-31T06:04:12.611Z,81.17
2019-01-31T06:04:53.886Z,81.45
2019-01-31T06:05:33.716Z,81.45
2019-01-31T06:06:14.263Z,81.17
2019-01-31T06:06:54.839Z,81.55
2019-01-31T06:07:35.386Z,81.26
2019-01-31T06:08:15.978Z,81.26
2019-01-31T06:08:56.533Z,81.45
2019-01-31T06:09:37.093Z,81.55
2019-01-31T06:10:17.690Z,81.17
2019-01-31T06:11:07.057Z,81.45
2019-01-31T06:11:38.801Z,81.26
2019-01-31T06:12:19.362Z,81.83
2019-01-31T06:12:59.926Z,81.93
2019-01-31T06:13:40.485Z,81.83
2019-01-31T06:14:21.054Z,81.74
2019-01-31T06:15:01.616Z,81.93
2019-01-31T06:15:42.158Z,81.93
2019-01-31T06:16:22.797Z,81.64
2019-01-31T06:17:03.303Z,81.64
2019-01-31T06:17:43.860Z,81.74
2019-01-31T06:18:24.441Z,82.02
2019-01-31T06:19:04.968Z,82.21
2019-01-31T06:19:45.526Z,81.83
2019-01-31T06:20:26.126Z,81.93
2019-01-31T06:21:06.680Z,81.83
2019-01-31T06:21:47.224Z,81.64
2019-01-31T06:22:27.783Z,81.64
2019-01-31T06:23:08.358Z,81.93
2019-01-31T06:23:48.926Z,82.5
2019-01-31T06:24:29.621Z,82.02
2019-01-31T06:25:10.273Z,82.02
2019-01-31T06:25:51.025Z,82.5
2019-01-31T06:26:31.752Z,82.31
2019-01-31T06:27:12.365Z,82.31
2019-01-31T06:27:53.158Z,82.59
2019-01-31T06:28:33.831Z,82.31
2019-01-31T06:29:14.396Z,82.12
2019-01-31T06:29:54.961Z,82.12
2019-01-31T06:30:35.610Z,81.93
2019-01-31T06:31:16.131Z,82.78
2019-01-31T06:31:56.717Z,83.34
2019-01-31T06:32:37.324Z,82.97
2019-01-31T06:33:17.916Z,83.25
2019-01-31T06:33:58.469Z,81.93
2019-01-31T06:34:39.050Z,82.02
2019-01-31T06:35:19.629Z,81.93
2019-01-31T06:36:00.177Z,81.83
2019-01-31T06:36:40.752Z,82.21
2019-01-31T06:37:21.350Z,81.93
2019-01-31T06:38:01.944Z,82.21
2019-01-31T06:38:42.508Z,82.12
2019-01-31T06:39:23.076Z,81.93
2019-01-31T06:40:03.640Z,82.02
2019-01-31T06:40:44.180Z,82.4
2019-01-31T06:41:24.770Z,82.02
2019-01-31T06:42:05.311Z,82.12
2019-01-31T06:42:45.888Z,82.02
2019-01-31T06:43:26.443Z,82.21
2019-01-31T06:44:07.057Z,82.59
2019-01-31T06:44:47.597Z,82.5
2019-01-31T06:45:28.168Z,82.78
2019-01-31T06:46:08.732Z,82.68
2019-01-31T06:46:49.293Z,82.21
2019-01-31T06:47:30.012Z,81.74
2019-01-31T06:48:10.833Z,82.12
2019-01-31T06:48:51.409Z,81.83
2019-01-31T06:49:31.963Z,81.93
2019-01-31T06:50:12.530Z,82.02
2019-01-31T06:50:53.087Z,82.02
2019-01-31T06:51:33.652Z,81.74
2019-01-31T06:52:14.221Z,81.64
2019-01-31T06:52:54.776Z,81.74
2019-01-31T06:53:35.325Z,82.21
2019-01-31T06:54:15.924Z,82.21
2019-01-31T06:54:56.476Z,82.5
2019-01-31T06:55:37.069Z,82.12
2019-01-31T06:56:17.623Z,81.64
2019-01-31T06:56:58.211Z,81.93
2019-01-31T06:57:38.828Z,81.93
2019-01-31T06:58:19.423Z,82.02
2019-01-31T06:58:59.991Z,81.83
2019-01-31T06:59:40.545Z,81.77
2019-01-31T07:00:21.132Z,81.87
2019-01-31T07:01:01.690Z,81.74
2019-01-31T07:01:42.272Z,81.83
2019-01-31T07:02:22.837Z,81.74
2019-01-31T07:03:03.398Z,81.36
2019-01-31T07:05:59.041Z,81.07
2019-01-31T07:06:39.638Z,81.49
2019-01-31T07:07:20.177Z,81.3
2019-01-31T07:08:00.741Z,81.55
2019-01-31T07:08:41.298Z,82.02
2019-01-31T07:09:21.837Z,82.06
2019-01-31T07:10:02.398Z,81.93
2019-01-31T07:10:42.984Z,81.96
2019-01-31T07:11:29.872Z,81.59
2019-01-31T07:12:04.086Z,82.06
2019-01-31T07:12:44.638Z,81.59
2019-01-31T07:13:25.179Z,81.59
2019-01-31T07:14:05.753Z,81.21
2019-01-31T07:14:46.391Z,81.02
2019-01-31T07:15:27.090Z,81.49
2019-01-31T07:16:07.672Z,81.3
2019-01-31T10:41:03.128Z,74.13
2019-01-31T10:41:43.705Z,74.13
2019-01-31T10:42:24.326Z,73.94
2019-01-31T10:43:04.893Z,73.94
2019-01-31T10:43:45.455Z,74.22
2019-01-31T10:44:26.010Z,74.32
2019-01-31T10:45:06.575Z,74.03
2019-01-31T10:45:47.155Z,74.6
2019-01-31T10:46:27.700Z,74.41
2019-01-31T10:47:08.291Z,74.22
2019-01-31T10:47:48.891Z,74.22
2019-01-31T10:48:29.483Z,74.51
2019-01-31T10:49:10.071Z,74.22
2019-01-31T10:49:50.957Z,74.22
2019-01-31T10:50:31.507Z,74.13
2019-01-31T10:51:12.076Z,74.13
2019-01-31T10:51:52.642Z,74.22
2019-01-31T10:52:33.182Z,74.13
2019-01-31T10:53:13.768Z,74.13
2019-01-31T10:53:54.380Z,74.13
2019-01-31T10:54:34.953Z,74.51
2019-01-31T10:55:17.018Z,74.22
2019-01-31T10:55:57.595Z,74.32
2019-01-31T10:56:38.145Z,74.41
2019-01-31T10:57:18.703Z,74.51
2019-01-31T10:57:59.253Z,74.6
2019-01-31T10:58:39.824Z,74.41
2019-01-31T10:59:20.386Z,74.13
2019-01-31T11:00:00.990Z,74.51
2019-01-31T11:00:41.529Z,74.41
2019-01-31T11:01:22.077Z,74.41
2019-01-31T11:02:02.650Z,74.51
2019-01-31T11:02:43.200Z,74.03
2019-01-31T11:03:23.770Z,74.13
2019-01-31T11:04:04.384Z,74.22
2019-01-31T11:04:44.962Z,73.84
2019-01-31T11:05:25.519Z,74.13
2019-01-31T11:06:06.073Z,74.32
2019-01-31T11:06:46.655Z,74.32
2019-01-31T11:07:27.274Z,74.32
2019-01-31T11:08:07.824Z,74.13
2019-01-31T11:08:48.384Z,73.84
2019-01-31T11:09:28.943Z,73.65
2019-01-31T11:10:09.513Z,73.27
2019-01-31T11:10:50.087Z,73.65
2019-01-31T11:11:30.699Z,73.56
2019-01-31T11:12:11.196Z,73.84
2019-01-31T11:13:00.166Z,73.56
2019-01-31T11:13:32.313Z,73.65
2019-01-31T11:14:12.942Z,73.84
2019-01-31T11:14:53.473Z,73.75
2019-01-31T11:15:34.061Z,74.13
2019-01-31T11:16:14.615Z,73.94
2019-01-31T11:16:55.173Z,73.56
2019-01-31T11:17:35.734Z,73.75
2019-01-31T11:18:16.301Z,73.56
2019-01-31T11:18:59.750Z,73.65
2019-01-31T11:19:37.419Z,73.27
2019-01-31T11:20:17.999Z,73.84
2019-01-31T11:20:58.564Z,73.46
2019-01-31T11:21:39.106Z,73.94
2019-01-31T11:22:19.701Z,74.32
2019-01-31T11:23:00.305Z,73.94
2019-01-31T11:23:40.903Z,73.56
2019-01-31T11:24:21.507Z,73.56
2019-01-31T11:25:02.069Z,73.65
2019-01-31T11:25:42.636Z,73.65
2019-01-31T11:26:23.208Z,73.65
2019-01-31T11:27:03.754Z,73.84
2019-01-31T11:27:44.313Z,73.37
2019-01-31T11:28:24.939Z,73.46
2019-01-31T11:29:05.497Z,73.94
2019-01-31T11:29:46.074Z,73.75
2019-01-31T11:30:26.645Z,73.94
2019-01-31T11:31:07.199Z,73.94
2019-01-31T11:31:47.782Z,73.94
2019-01-31T11:32:28.351Z,73.94
2019-01-31T11:33:08.905Z,73.94
2019-01-31T11:33:49.473Z,74.13
2019-01-31T11:34:32.842Z,74.41
2019-01-31T11:35:10.632Z,74.13
2019-01-31T11:35:51.192Z,73.46
2019-01-31T11:36:31.762Z,73.65
2019-01-31T11:37:12.315Z,74.03
2019-01-31T11:37:52.891Z,73.37
2019-01-31T11:38:33.444Z,73.65
2019-01-31T11:39:14.008Z,73.18
2019-01-31T11:39:54.569Z,73.18
2019-01-31T11:40:35.146Z,73.27
2019-01-31T11:41:15.717Z,73.56
2019-01-31T11:41:56.293Z,73.46
2019-01-31T11:42:36.849Z,73.56
2019-01-31T11:43:17.412Z,73.56
2019-01-31T11:43:57.977Z,73.46
2019-01-31T11:44:38.545Z,73.27
2019-01-31T11:45:19.116Z,73.18
2019-01-31T11:45:59.668Z,73.56
2019-01-31T11:46:40.218Z,73.84
2019-01-31T11:47:20.851Z,73.84
2019-01-31T11:48:01.397Z,73.65
2019-01-31T11:48:41.947Z,73.56
2019-01-31T11:49:22.496Z,73.56
2019-01-31T11:50:03.558Z,73.46
2019-01-31T11:50:44.117Z,73.46
2019-01-31T11:51:24.668Z,73.37
2019-01-31T11:52:05.236Z,73.18
2019-01-31T11:52:45.806Z,73.08
2019-01-31T11:53:26.412Z,73.46
2019-01-31T11:54:07.023Z,73.46
2019-01-31T11:54:47.616Z,73.75
2019-01-31T11:55:28.173Z,72.99
2019-01-31T11:56:08.742Z,73.08
2019-01-31T11:56:49.309Z,73.27
2019-01-31T11:57:29.858Z,73.18
2019-01-31T11:58:10.411Z,73.27
2019-01-31T11:58:50.951Z,72.8
2019-01-31T11:59:31.518Z,73.27
2019-01-31T12:00:12.059Z,72.52
2019-01-31T12:00:53.065Z,72.71
2019-01-31T12:01:33.232Z,72.61
2019-01-31T12:02:13.826Z,72.99
2019-01-31T12:02:55.249Z,72.8
2019-01-31T12:03:34.918Z,72.8
2019-01-31T12:04:15.490Z,72.71
2019-01-31T12:04:56.038Z,72.52
2019-01-31T12:05:36.581Z,72.42
2019-01-31T12:06:17.144Z,72.71
2019-01-31T12:06:57.708Z,71.95
2019-01-31T12:07:38.298Z,72.14
2019-01-31T12:08:18.849Z,72.14
2019-01-31T12:08:59.399Z,72.14
2019-01-31T12:09:39.968Z,72.14